Time;durP1;ratioP1;P1;durP2;ratioP2;P2;SDS_P1;SDS_P2;PMS_P1;PMS_P2;Temp;Humidity;BMP_temperature;BMP_pressure;BME280_temperature;BME280_humidity;BME280_pressure;Samples;Min_cycle;Max_cycle;Signal;HPM_P1;HPM_P2
2022/11/16 00:02:14;;;;;;;102.33;25.43;;;7.30;99.90;;;;;;5074947;28;20201;-81
2022/11/16 00:04:41;;;;;;;123.43;28.17;;;7.30;99.90;;;;;;5074454;28;20185;-82
2022/11/16 00:07:09;;;;;;;90.03;24.40;;;7.30;99.90;;;;;;5074558;28;20306;-81
2022/11/16 00:09:38;;;;;;;108.23;26.47;;;7.30;99.90;;;;;;5074337;28;20196;-81
2022/11/16 00:12:07;;;;;;;88.83;23.40;;;7.30;99.90;;;;;;5074599;28;20211;-81
2022/11/16 00:14:35;;;;;;;83.90;21.33;;;7.30;99.90;;;;;;5074343;28;20206;-81
2022/11/16 00:17:03;;;;;;;95.47;25.27;;;7.30;99.90;;;;;;5075011;28;20610;-82
2022/11/16 00:19:31;;;;;;;99.50;26.67;;;7.30;99.90;;;;;;5073927;28;20254;-81
2022/11/16 00:21:58;;;;;;;95.97;24.73;;;7.20;99.90;;;;;;5074271;28;20275;-81
2022/11/16 00:24:25;;;;;;;97.73;25.57;;;7.20;99.90;;;;;;5073782;28;20199;-81
2022/11/16 00:26:55;;;;;;;90.30;25.67;;;7.30;99.90;;;;;;5074135;28;20222;-81
2022/11/16 00:29:24;;;;;;;83.77;22.27;;;7.30;99.90;;;;;;5074477;28;20192;-81
2022/11/16 00:31:52;;;;;;;92.53;24.30;;;7.30;99.90;;;;;;5074112;28;20189;-81
2022/11/16 00:34:20;;;;;;;113.00;25.37;;;7.30;99.90;;;;;;5073969;28;20249;-81
2022/11/16 00:36:47;;;;;;;117.87;27.50;;;7.20;99.90;;;;;;5074038;28;20216;-81
2022/11/16 00:39:15;;;;;;;116.37;26.63;;;7.20;99.90;;;;;;5074049;28;20234;-82
2022/11/16 00:41:43;;;;;;;116.00;28.10;;;7.30;99.90;;;;;;5073933;28;20636;-81
2022/11/16 00:44:12;;;;;;;97.83;25.33;;;7.30;99.90;;;;;;5074141;28;20197;-81
2022/11/16 00:46:39;;;;;;;124.87;26.07;;;7.30;99.90;;;;;;5074017;28;20204;-81
2022/11/16 00:49:06;;;;;;;114.67;26.90;;;7.30;99.90;;;;;;5073766;28;20643;-81
2022/11/16 00:51:34;;;;;;;142.83;28.20;;;7.30;99.90;;;;;;5074157;28;20192;-81
2022/11/16 00:54:02;;;;;;;130.57;26.77;;;7.30;99.90;;;;;;5073886;28;20707;-81
2022/11/16 00:56:29;;;;;;;140.63;28.27;;;7.30;99.90;;;;;;5073688;28;20216;-81
2022/11/16 00:58:56;;;;;;;131.97;25.60;;;7.30;99.90;;;;;;5073514;28;20699;-81
2022/11/16 01:01:24;;;;;;;122.43;25.37;;;7.30;99.90;;;;;;5073875;28;20251;-81
2022/11/16 01:03:51;;;;;;;99.83;24.20;;;7.30;99.90;;;;;;5073523;28;20541;-81
2022/11/16 01:06:19;;;;;;;98.07;23.50;;;7.30;99.90;;;;;;5073678;28;20242;-81
2022/11/16 01:08:46;;;;;;;96.23;25.30;;;7.20;99.90;;;;;;5073104;28;20204;-81
2022/11/16 01:14:02;;;;;;;91.87;23.67;;;7.20;99.90;;;;;;5073299;28;20199;-81
2022/11/16 01:16:31;;;;;;;106.23;25.90;;;7.20;99.90;;;;;;5071785;28;20295;-81
2022/11/16 01:18:58;;;;;;;95.37;25.53;;;7.20;99.90;;;;;;5073055;28;20246;-82
2022/11/16 01:21:25;;;;;;;122.73;26.43;;;7.20;99.90;;;;;;5073542;28;20193;-81
2022/11/16 01:23:52;;;;;;;127.37;28.13;;;7.20;99.90;;;;;;5072969;28;20195;-82
2022/11/16 01:26:19;;;;;;;111.93;25.97;;;7.20;99.90;;;;;;5073269;28;20246;-81
2022/11/16 01:28:46;;;;;;;114.03;27.50;;;7.20;99.90;;;;;;5073604;28;20192;-81
2022/11/16 01:31:14;;;;;;;112.00;26.43;;;7.20;99.90;;;;;;5072594;28;20607;-84
2022/11/16 01:33:42;;;;;;;100.43;22.60;;;7.20;99.90;;;;;;5059968;28;20199;-80
2022/11/16 01:36:13;;;;;;;110.13;23.87;;;7.20;99.90;;;;;;5073182;28;20220;-81
2022/11/16 01:38:42;;;;;;;122.17;25.63;;;7.20;99.90;;;;;;5073236;28;20220;-81
2022/11/16 01:41:09;;;;;;;111.07;24.93;;;7.20;99.90;;;;;;5072552;28;20282;-81
2022/11/16 01:43:52;;;;;;;107.27;26.50;;;7.20;99.90;;;;;;5073122;28;20270;-81
2022/11/16 01:46:19;;;;;;;88.10;22.30;;;7.20;99.90;;;;;;5072742;28;20731;-81
2022/11/16 01:48:50;;;;;;;94.73;22.67;;;7.20;99.90;;;;;;5071821;28;20286;-81
2022/11/16 01:51:17;;;;;;;89.20;22.17;;;7.20;99.90;;;;;;5073001;28;20220;-81
2022/11/16 01:53:44;;;;;;;105.43;26.87;;;7.20;99.90;;;;;;5072419;28;20219;-81
2022/11/16 01:56:11;;;;;;;97.33;25.47;;;7.20;99.90;;;;;;5072598;28;20269;-82
2022/11/16 01:58:38;;;;;;;88.87;22.80;;;7.20;99.90;;;;;;5072657;28;20246;-81
2022/11/16 02:01:06;;;;;;;77.73;22.80;;;7.20;99.90;;;;;;5072709;28;20248;-81
2022/11/16 02:03:33;;;;;;;89.67;23.90;;;7.20;99.90;;;;;;5072292;28;20197;-81
2022/11/16 02:06:29;;;;;;;87.53;25.27;;;7.20;99.90;;;;;;5072432;28;20189;-81
2022/11/16 02:12:07;;;;;;;78.63;22.90;;;7.10;99.90;;;;;;5072245;28;20194;-81
2022/11/16 02:14:53;;;;;;;75.50;21.43;;;7.10;99.90;;;;;;5059826;28;20211;-81
2022/11/16 02:17:28;;;;;;;83.53;23.03;;;7.10;99.90;;;;;;5072099;28;20253;-81
2022/11/16 02:20:32;;;;;;;68.03;23.80;;;7.10;99.90;;;;;;5072205;28;20196;-82
2022/11/16 02:23:20;;;;;;;69.37;23.30;;;7.10;99.90;;;;;;5060494;28;20249;-81
2022/11/16 02:25:56;;;;;;;62.60;21.53;;;7.10;99.90;;;;;;5072286;28;20192;-81
2022/11/16 02:28:32;;;;;;;62.03;20.37;;;7.10;99.90;;;;;;5072440;28;20651;-81
2022/11/16 02:31:05;;;;;;;59.27;19.57;;;7.00;99.90;;;;;;5072244;28;20713;-81
2022/11/16 02:33:36;;;;;;;67.83;21.03;;;7.00;99.90;;;;;;5072149;28;20195;-81
2022/11/16 02:36:07;;;;;;;55.77;19.30;;;7.00;99.90;;;;;;5071781;28;20753;-81
2022/11/16 02:38:38;;;;;;;65.67;21.67;;;7.00;99.90;;;;;;5072049;28;20192;-81
2022/11/16 02:41:10;;;;;;;76.93;22.23;;;7.00;99.90;;;;;;5071788;28;20206;-81
2022/11/16 02:43:41;;;;;;;61.00;20.47;;;7.00;99.90;;;;;;5072517;28;20234;-81
2022/11/16 02:46:16;;;;;;;58.20;17.57;;;7.00;99.90;;;;;;5072264;28;20196;-81
2022/11/16 02:48:47;;;;;;;50.73;16.47;;;7.00;99.90;;;;;;5072306;28;20252;-81
2022/11/16 02:51:15;;;;;;;54.63;19.70;;;7.00;99.90;;;;;;5071490;28;20568;-81
2022/11/16 02:53:57;;;;;;;61.80;20.90;;;7.00;99.90;;;;;;5071654;28;20628;-82
2022/11/16 02:56:24;;;;;;;61.47;20.03;;;7.00;99.90;;;;;;5071832;28;20610;-81
2022/11/16 02:58:51;;;;;;;61.53;21.40;;;7.00;99.90;;;;;;5071734;28;20245;-81
2022/11/16 03:01:27;;;;;;;67.00;21.00;;;7.00;99.90;;;;;;5074330;28;20195;-81
2022/11/16 03:04:01;;;;;;;53.93;18.47;;;6.90;99.90;;;;;;5075732;28;20270;-82
2022/11/16 03:06:31;;;;;;;47.03;16.10;;;7.00;99.90;;;;;;5075893;28;20238;-81
2022/11/16 03:09:02;;;;;;;59.87;20.17;;;7.00;99.90;;;;;;5075913;28;20192;-81
2022/11/16 03:14:18;;;;;;;62.03;19.37;;;6.90;99.90;;;;;;5064319;28;20551;-81
2022/11/16 03:16:50;;;;;;;73.73;22.00;;;6.90;99.90;;;;;;5075856;28;20208;-81
2022/11/16 03:19:22;;;;;;;88.10;23.50;;;6.90;99.90;;;;;;5075940;28;20252;-81
2022/11/16 03:21:55;;;;;;;71.23;22.50;;;6.90;99.90;;;;;;5075496;28;20196;-81
2022/11/16 03:24:22;;;;;;;63.07;20.93;;;6.90;99.90;;;;;;5075559;28;20196;-81
2022/11/16 03:26:54;;;;;;;59.80;19.90;;;6.90;1.00;;;;;;5075459;28;20248;-81
2022/11/16 03:29:26;;;;;;;59.30;21.03;;;6.90;1.00;;;;;;5075323;28;20592;-81
2022/11/16 03:31:59;;;;;;;68.80;23.27;;;6.90;99.90;;;;;;5075524;28;20199;-81
2022/11/16 03:34:31;;;;;;;60.20;23.10;;;6.90;1.00;;;;;;5075597;28;20590;-81
2022/11/16 03:37:00;;;;;;;46.43;17.30;;;7.00;99.90;;;;;;5074784;28;20209;-81
2022/11/16 03:39:33;;;;;;;59.63;19.50;;;6.90;1.00;;;;;;5075272;28;20201;-81
2022/11/16 03:42:02;;;;;;;49.20;19.10;;;7.00;99.90;;;;;;5075104;28;20184;-81
2022/11/16 03:44:30;;;;;;;55.40;20.07;;;6.90;99.90;;;;;;5075255;28;20207;-82
2022/11/16 03:46:58;;;;;;;48.40;18.27;;;7.00;99.90;;;;;;5074606;28;20203;-81
2022/11/16 03:49:29;;;;;;;52.43;19.50;;;7.00;99.90;;;;;;5075291;28;20250;-81
2022/11/16 03:51:57;;;;;;;52.33;18.57;;;7.00;99.90;;;;;;5074809;28;20192;-81
2022/11/16 03:54:24;;;;;;;45.80;17.07;;;7.00;99.90;;;;;;5074681;28;20220;-81
2022/11/16 03:56:51;;;;;;;45.40;17.97;;;7.00;99.90;;;;;;5074887;28;20273;-81
2022/11/16 03:59:18;;;;;;;46.33;18.80;;;7.00;99.90;;;;;;5075031;28;20604;-81
2022/11/16 04:01:45;;;;;;;50.07;18.63;;;6.90;99.90;;;;;;5075008;28;20249;-82
2022/11/16 04:26:11;;;;;;;41.43;17.63;;;7.00;1.00;;;;;;5071079;28;20702;-81
2022/11/16 04:28:38;;;;;;;34.77;15.67;;;6.90;1.00;;;;;;5074095;28;20206;-81
2022/11/16 04:39:21;;;;;;;48.47;19.17;;;6.90;1.00;;;;;;5073950;28;20201;-81
2022/11/16 04:47:15;;;;;;;42.63;17.20;;;6.90;1.00;;;;;;5073126;28;20255;-81
2022/11/16 04:49:43;;;;;;;39.93;16.33;;;6.80;1.00;;;;;;5073932;28;20191;-82
2022/11/16 04:52:11;;;;;;;43.47;18.10;;;6.80;1.00;;;;;;5074106;28;20300;-82
2022/11/16 04:54:38;;;;;;;36.83;13.77;;;6.80;1.00;;;;;;5073442;28;20361;-82
2022/11/16 04:57:05;;;;;;;34.23;13.97;;;6.80;1.00;;;;;;5073583;28;20756;-82
2022/11/16 04:59:32;;;;;;;42.53;16.90;;;6.90;1.00;;;;;;5073592;28;20200;-82
2022/11/16 05:02:08;;;;;;;39.33;16.53;;;6.90;1.00;;;;;;5072058;28;20239;-83
2022/11/16 05:04:35;;;;;;;38.50;16.33;;;6.90;1.00;;;;;;5072230;28;20249;-82
2022/11/16 05:07:02;;;;;;;43.17;17.77;;;6.90;1.00;;;;;;5072259;28;20246;-82
2022/11/16 05:09:30;;;;;;;44.13;18.50;;;6.80;1.00;;;;;;5073160;28;20200;-82
2022/11/16 05:11:57;;;;;;;41.70;16.47;;;6.90;1.00;;;;;;5072711;28;20202;-82
2022/11/16 05:14:24;;;;;;;41.73;16.53;;;6.90;1.00;;;;;;5072437;28;20196;-82
2022/11/16 05:17:02;;;;;;;34.47;14.43;;;6.90;1.00;;;;;;5070933;28;20204;-83
2022/11/16 05:22:13;;;;;;;39.50;16.90;;;6.90;1.00;;;;;;5073222;28;20194;-80
2022/11/16 05:24:42;;;;;;;36.13;15.23;;;6.90;99.90;;;;;;5071790;28;20195;-80
2022/11/16 05:27:11;;;;;;;31.47;13.97;;;6.90;99.90;;;;;;5072778;28;20531;-80
2022/11/16 05:29:39;;;;;;;40.10;15.43;;;6.90;99.90;;;;;;5073082;28;20200;-81
2022/11/16 05:32:07;;;;;;;37.20;15.17;;;6.90;99.90;;;;;;5068353;28;20196;-80
2022/11/16 05:34:42;;;;;;;35.77;15.63;;;6.90;99.90;;;;;;5073024;28;20198;-80
2022/11/16 05:37:10;;;;;;;34.50;14.20;;;6.90;99.90;;;;;;5072372;28;20629;-82
2022/11/16 05:39:37;;;;;;;42.33;16.90;;;6.90;99.90;;;;;;5073137;28;20197;-81
2022/11/16 05:42:06;;;;;;;35.73;15.20;;;6.90;99.90;;;;;;5072763;28;20188;-82
2022/11/16 05:44:33;;;;;;;31.83;13.60;;;6.90;99.90;;;;;;5073104;28;20197;-81
2022/11/16 05:47:01;;;;;;;29.33;13.20;;;7.00;99.90;;;;;;5072315;28;20192;-82
2022/11/16 05:49:28;;;;;;;25.80;10.93;;;6.90;1.00;;;;;;5069630;28;20203;-81
2022/11/16 05:51:55;;;;;;;30.60;12.53;;;6.90;1.00;;;;;;5071335;28;20617;-82
2022/11/16 05:54:25;;;;;;;31.20;13.97;;;6.90;1.00;;;;;;5070141;28;20227;-81
2022/11/16 05:56:52;;;;;;;30.07;12.43;;;7.00;1.00;;;;;;5070882;28;20219;-80
2022/11/16 05:59:22;;;;;;;30.27;13.60;;;6.90;1.00;;;;;;5070259;28;20200;-81
2022/11/16 06:01:50;;;;;;;30.37;13.23;;;6.90;1.00;;;;;;5069921;28;20212;-81
2022/11/16 06:04:17;;;;;;;28.93;13.23;;;6.90;1.00;;;;;;5071560;28;20196;-81
2022/11/16 06:06:44;;;;;;;23.30;11.07;;;6.90;1.00;;;;;;5071779;28;20683;-81
2022/11/16 06:09:12;;;;;;;20.13;10.93;;;7.00;99.90;;;;;;5071646;28;20211;-85
2022/11/16 06:11:40;;;;;;;23.73;11.00;;;7.00;1.00;;;;;;5071891;28;20205;-84
2022/11/16 06:14:07;;;;;;;24.90;12.70;;;7.00;99.90;;;;;;5072137;28;20528;-85
2022/11/16 06:16:36;;;;;;;22.93;11.83;;;7.00;99.90;;;;;;5071767;28;20251;-84
2022/11/16 06:19:03;;;;;;;25.70;12.13;;;7.00;99.90;;;;;;5071878;28;20197;-84
2022/11/16 06:21:31;;;;;;;26.10;12.23;;;7.00;99.90;;;;;;5071994;28;20207;-85
2022/11/16 06:23:58;;;;;;;23.13;11.70;;;7.00;99.90;;;;;;5071802;28;20535;-86
2022/11/16 06:26:25;;;;;;;23.27;11.50;;;7.00;99.90;;;;;;5071925;28;20203;-84
2022/11/16 06:28:53;;;;;;;23.90;11.27;;;7.00;99.90;;;;;;5071867;28;20207;-85
2022/11/16 06:31:20;;;;;;;31.03;11.47;;;7.00;99.90;;;;;;5072049;28;20196;-84
2022/11/16 06:33:49;;;;;;;22.80;11.83;;;7.10;99.90;;;;;;5072607;28;20193;-86
2022/11/16 06:36:16;;;;;;;22.23;10.40;;;7.00;99.90;;;;;;5071735;28;20199;-83
2022/11/16 06:38:43;;;;;;;21.47;11.33;;;7.10;23.60;;;;;;5071737;28;20190;-84
2022/11/16 06:41:10;;;;;;;23.43;11.97;;;7.10;1.00;;;;;;5072217;28;20196;-84
2022/11/16 06:43:37;;;;;;;21.13;11.43;;;7.10;1.00;;;;;;5071750;28;20675;-84
2022/11/16 06:46:04;;;;;;;21.37;11.33;;;7.10;1.00;;;;;;5071779;28;20203;-84
2022/11/16 06:48:32;;;;;;;22.83;11.93;;;7.10;1.00;;;;;;5071728;28;20253;-84
2022/11/16 06:51:00;;;;;;;23.90;11.40;;;7.10;1.00;;;;;;5071977;28;20290;-85
2022/11/16 06:53:27;;;;;;;20.63;11.53;;;7.10;1.00;;;;;;5071685;28;20224;-83
2022/11/16 06:55:54;;;;;;;20.27;10.70;;;7.10;1.00;;;;;;5072133;28;20191;-84
2022/11/16 06:58:22;;;;;;;24.47;11.83;;;7.10;1.00;;;;;;5072237;28;20622;-85
2022/11/16 07:00:49;;;;;;;21.60;11.60;;;7.10;1.00;;;;;;5072225;28;20206;-83
2022/11/16 07:03:16;;;;;;;20.10;11.20;;;7.20;1.00;;;;;;5071956;28;20201;-84
2022/11/16 07:05:43;;;;;;;20.10;10.87;;;7.20;1.00;;;;;;5072020;28;20710;-84
2022/11/16 07:08:12;;;;;;;23.83;11.33;;;7.20;1.00;;;;;;5071481;28;20652;-84
2022/11/16 07:10:39;;;;;;;22.80;11.23;;;7.20;99.90;;;;;;5071944;28;20199;-84
2022/11/16 07:13:06;;;;;;;22.30;11.30;;;7.30;99.90;;;;;;5076306;28;20195;-84
2022/11/16 07:15:33;;;;;;;21.03;11.30;;;7.30;99.90;;;;;;5071761;28;20204;-84
2022/11/16 07:18:05;;;;;;;21.77;11.80;;;7.30;99.90;;;;;;5075421;28;20223;-83
2022/11/16 07:39:09;;;;;;;25.70;12.50;;;6.80;99.90;;;;;;5107740;27;20935;-85
2022/11/16 07:41:37;;;;;;;22.27;12.07;;;7.50;99.90;;;;;;5111920;28;20660;-84
2022/11/16 07:44:04;;;;;;;21.13;11.33;;;7.50;99.90;;;;;;5110058;28;20195;-84
2022/11/16 07:49:53;;;;;;;22.67;11.83;;;7.50;1.00;;;;;;5113072;28;20198;-85
2022/11/16 07:52:21;;;;;;;19.90;11.23;;;7.50;1.00;;;;;;5101793;28;20207;-88
2022/11/16 07:54:49;;;;;;;20.60;10.73;;;7.50;1.00;;;;;;5114442;28;20266;-84
2022/11/16 07:57:16;;;;;;;21.70;11.00;;;7.50;1.00;;;;;;5110301;28;20210;-85
2022/11/16 07:59:43;;;;;;;21.43;12.10;;;7.50;1.00;;;;;;5112867;28;20187;-85
2022/11/16 08:02:10;;;;;;;21.03;12.63;;;7.50;1.00;;;;;;5112140;28;20201;-85
2022/11/16 08:04:39;;;;;;;20.80;10.57;;;7.50;1.00;;;;;;5110171;28;20195;-85
2022/11/16 08:07:07;;;;;;;21.37;11.33;;;7.60;1.00;;;;;;5113814;28;20217;-85
2022/11/16 08:09:36;;;;;;;18.07;9.83;;;7.50;1.00;;;;;;5112124;28;20195;-84
2022/11/16 08:12:05;;;;;;;23.37;11.43;;;7.50;1.00;;;;;;5110124;28;20198;-84
2022/11/16 08:14:32;;;;;;;17.33;10.17;;;7.50;1.00;;;;;;5111633;28;20665;-84
2022/11/16 08:16:59;;;;;;;21.63;11.27;;;7.50;99.90;;;;;;5111656;28;20224;-85
2022/11/16 08:19:26;;;;;;;18.27;10.97;;;7.60;99.90;;;;;;5109711;28;20195;-84
2022/11/16 08:21:53;;;;;;;20.53;11.23;;;7.60;99.90;;;;;;5109688;28;20257;-86
2022/11/16 08:24:21;;;;;;;23.30;10.90;;;7.70;99.90;;;;;;5111910;28;20196;-85
2022/11/16 08:26:49;;;;;;;19.13;10.53;;;7.70;99.90;;;;;;5111897;28;20201;-83
2022/11/16 08:29:18;;;;;;;18.17;11.00;;;7.70;99.90;;;;;;5095018;28;20199;-84
2022/11/16 08:31:45;;;;;;;17.93;10.50;;;7.70;99.90;;;;;;5109701;28;20199;-84
2022/11/16 08:34:12;;;;;;;17.50;10.77;;;7.80;93.70;;;;;;5111619;28;20191;-85
2022/11/16 08:36:39;;;;;;;19.17;10.60;;;7.70;1.00;;;;;;5099620;28;20192;-84
2022/11/16 08:39:06;;;;;;;18.00;10.97;;;7.70;1.00;;;;;;5098365;28;20192;-84
2022/11/16 08:41:36;;;;;;;16.43;9.87;;;7.70;1.00;;;;;;5091804;28;20196;-88
2022/11/16 08:44:04;;;;;;;17.90;9.83;;;7.70;1.00;;;;;;5099387;28;20200;-84
2022/11/16 08:46:32;;;;;;;15.63;9.40;;;7.80;1.00;;;;;;5098048;28;20201;-83
2022/11/16 08:48:59;;;;;;;15.10;7.83;;;7.80;1.00;;;;;;5072928;28;20680;-85
2022/11/16 08:51:26;;;;;;;14.30;8.77;;;7.80;1.00;;;;;;5097341;28;20208;-85
2022/11/16 08:53:58;;;;;;;13.53;8.30;;;7.80;1.00;;;;;;5101129;28;20201;-86
2022/11/16 08:56:26;;;;;;;12.93;8.23;;;7.80;1.00;;;;;;5104547;28;20624;-84
2022/11/16 08:58:57;;;;;;;12.63;7.97;;;7.80;1.00;;;;;;5096867;28;20592;-88
2022/11/16 09:01:26;;;;;;;13.13;7.43;;;7.90;1.00;;;;;;5098036;28;20248;-84
2022/11/16 09:03:54;;;;;;;13.37;7.53;;;8.10;1.00;;;;;;5095138;28;20195;-84
2022/11/16 09:06:22;;;;;;;11.63;6.43;;;8.10;1.00;;;;;;5099687;28;20203;-85
2022/11/16 09:08:50;;;;;;;9.17;5.30;;;8.20;1.00;;;;;;5097245;28;20200;-85
2022/11/16 09:11:20;;;;;;;12.13;6.73;;;8.30;99.90;;;;;;5091344;28;20197;-83
2022/11/16 09:13:49;;;;;;;10.10;6.53;;;8.30;99.90;;;;;;5097304;28;20193;-83
2022/11/16 09:16:19;;;;;;;9.87;6.20;;;8.30;99.90;;;;;;5097821;28;20188;-84
2022/11/16 09:18:47;;;;;;;10.73;6.50;;;8.40;99.90;;;;;;5096568;28;20221;-85
2022/11/16 09:21:19;;;;;;;9.73;6.20;;;8.40;99.90;;;;;;5095132;28;20193;-86
2022/11/16 09:23:47;;;;;;;11.10;5.20;;;8.50;1.00;;;;;;5099100;28;20665;-87
2022/11/16 09:26:15;;;;;;;8.83;5.50;;;8.40;1.00;;;;;;5104401;28;20243;-87
2022/11/16 09:28:44;;;;;;;10.40;6.53;;;8.40;1.00;;;;;;5084470;28;20207;-86
2022/11/16 09:31:12;;;;;;;9.13;5.37;;;8.30;1.00;;;;;;5098949;28;20193;-86
2022/11/16 09:33:39;;;;;;;10.83;5.80;;;8.30;1.00;;;;;;5094599;28;20197;-85
2022/11/16 09:36:08;;;;;;;8.80;5.23;;;8.40;1.00;;;;;;5096851;28;20194;-84
2022/11/16 09:38:41;;;;;;;9.07;5.63;;;8.50;1.00;;;;;;5094348;28;20224;-83
2022/11/16 09:41:29;;;;;;;9.47;5.43;;;8.60;1.00;;;;;;5094707;28;20535;-84
2022/11/16 09:44:04;;;;;;;9.57;5.73;;;8.70;1.00;;;;;;5096090;28;20200;-85
2022/11/16 09:46:36;;;;;;;10.57;5.80;;;8.70;99.90;;;;;;5094657;28;20193;-84
2022/11/16 09:49:11;;;;;;;11.10;5.80;;;8.70;99.90;;;;;;5094200;28;20200;-86
2022/11/16 09:51:41;;;;;;;9.17;5.30;;;8.70;99.90;;;;;;5084256;28;20199;-85
2022/11/16 09:54:15;;;;;;;8.83;6.00;;;8.70;99.90;;;;;;5097634;28;20201;-85
2022/11/16 09:56:44;;;;;;;9.30;5.00;;;8.70;99.90;;;;;;5100671;28;20188;-84
2022/11/16 09:59:20;;;;;;;10.03;5.73;;;8.60;99.90;;;;;;5096796;28;20214;-83
2022/11/16 10:01:50;;;;;;;8.33;5.10;;;8.50;99.90;;;;;;5096440;28;20610;-85
2022/11/16 10:04:21;;;;;;;12.00;6.23;;;8.50;99.90;;;;;;5095308;28;20228;-86
2022/11/16 10:06:53;;;;;;;10.47;6.40;;;8.50;99.90;;;;;;5094652;28;20594;-84
2022/11/16 10:09:22;;;;;;;10.23;6.10;;;8.50;99.90;;;;;;5096786;28;20189;-84
2022/11/16 10:12:06;;;;;;;10.87;6.57;;;8.50;99.90;;;;;;5094011;28;20200;-84
2022/11/16 10:15:07;;;;;;;9.97;6.63;;;8.60;99.90;;;;;;5094181;28;20214;-84
2022/11/16 10:17:58;;;;;;;9.60;5.67;;;8.70;99.90;;;;;;5097089;28;20219;-90
2022/11/16 10:20:44;;;;;;;10.63;6.27;;;8.70;76.70;;;;;;5096469;28;20199;-85
2022/11/16 10:23:18;;;;;;;12.03;7.13;;;8.80;93.80;;;;;;5095850;28;20195;-84
2022/11/16 10:25:53;;;;;;;34.37;26.33;;;8.90;1.00;;;;;;5093985;28;20201;-83
2022/11/16 10:28:37;;;;;;;11.63;7.23;;;9.00;1.00;;;;;;5094557;28;20228;-84
2022/11/16 10:31:15;;;;;;;12.90;7.20;;;9.00;1.00;;;;;;5096523;28;20194;-85
2022/11/16 10:33:44;;;;;;;12.07;6.93;;;9.10;1.00;;;;;;5091306;28;20201;-86
2022/11/16 10:36:14;;;;;;;12.90;8.03;;;9.20;1.00;;;;;;5093599;28;20188;-86
2022/11/16 10:39:12;;;;;;;10.43;6.50;;;9.20;1.00;;;;;;5093292;28;20590;-86
2022/11/16 10:41:44;;;;;;;8.97;6.20;;;9.20;1.00;;;;;;5093284;28;20196;-85
2022/11/16 10:44:19;;;;;;;10.10;6.23;;;9.30;1.00;;;;;;5093625;28;20202;-85
2022/11/16 10:46:55;;;;;;;11.43;6.80;;;9.30;1.00;;;;;;5093686;28;20645;-86
2022/11/16 10:49:28;;;;;;;10.50;6.50;;;9.30;1.00;;;;;;5093496;28;20189;-85
2022/11/16 10:51:56;;;;;;;12.60;6.47;;;9.30;1.00;;;;;;5093519;28;20200;-86
2022/11/16 10:54:22;;;;;;;11.80;6.87;;;9.30;1.00;;;;;;5092961;28;20205;-85
2022/11/16 10:57:01;;;;;;;10.77;6.40;;;9.30;1.00;;;;;;5095279;28;20206;-84
2022/11/16 10:59:39;;;;;;;10.97;6.33;;;9.40;1.00;;;;;;5093320;28;20260;-84
2022/11/16 11:02:31;;;;;;;11.07;6.13;;;9.40;1.00;;;;;;5095341;28;20636;-85
2022/11/16 11:05:08;;;;;;;9.77;5.83;;;9.50;99.90;;;;;;5095674;28;20619;-85
2022/11/16 11:07:38;;;;;;;9.57;5.77;;;9.40;99.90;;;;;;5092854;28;20210;-85
2022/11/16 11:10:21;;;;;;;9.77;6.27;;;9.40;99.90;;;;;;5093288;28;20205;-85
2022/11/16 11:31:12;;;;;;;9.70;6.37;;;9.10;99.90;;;;;;5118121;27;20728;-86
2022/11/16 11:33:47;;;;;;;8.33;5.73;;;9.60;1.00;;;;;;5110571;28;20257;-85
2022/11/16 11:36:18;;;;;;;7.13;4.97;;;9.50;1.00;;;;;;5110153;28;20592;-86
2022/11/16 11:38:57;;;;;;;9.27;6.20;;;9.50;1.00;;;;;;5112587;28;20254;-84
2022/11/16 11:41:26;;;;;;;10.23;5.83;;;9.40;1.00;;;;;;5114505;28;20281;-86
2022/11/16 11:44:03;;;;;;;8.57;5.67;;;9.40;1.00;;;;;;5112824;28;20201;-84
2022/11/16 11:46:36;;;;;;;8.80;5.90;;;9.30;98.90;;;;;;5113574;28;20621;-85
2022/11/16 11:49:12;;;;;;;8.67;5.57;;;9.40;98.50;;;;;;5114133;28;20206;-89
2022/11/16 11:51:42;;;;;;;8.03;5.63;;;9.30;99.90;;;;;;5109790;28;20235;-86
2022/11/16 11:54:18;;;;;;;7.23;4.90;;;9.30;99.90;;;;;;5109738;28;20190;-86
2022/11/16 11:56:46;;;;;;;10.40;5.77;;;9.20;99.90;;;;;;5095716;28;20194;-86
2022/11/16 11:59:18;;;;;;;8.33;5.50;;;9.20;99.90;;;;;;5110405;28;20218;-84
2022/11/16 12:02:07;;;;;;;9.47;5.37;;;9.20;99.90;;;;;;5109864;28;20281;-85
2022/11/16 12:05:03;;;;;;;8.80;5.60;;;9.20;99.90;;;;;;5112956;28;20200;-84
2022/11/16 12:07:46;;;;;;;11.07;5.07;;;9.20;99.90;;;;;;5109907;28;20300;-83
2022/11/16 12:10:26;;;;;;;8.43;5.23;;;9.10;99.90;;;;;;5097476;28;20698;-84
2022/11/16 12:13:08;;;;;;;8.60;5.00;;;9.10;99.90;;;;;;5109841;28;20285;-83
2022/11/16 12:15:58;;;;;;;8.30;5.50;;;9.10;99.90;;;;;;5109722;28;20682;-83
2022/11/16 12:18:38;;;;;;;8.77;4.73;;;9.00;99.90;;;;;;5109597;28;20198;-84
2022/11/16 12:21:11;;;;;;;7.33;4.20;;;9.10;99.90;;;;;;5109666;28;20193;-84
2022/11/16 12:23:55;;;;;;;7.70;4.10;;;9.10;99.90;;;;;;5109548;28;20242;-84
2022/11/16 12:26:32;;;;;;;7.97;5.00;;;9.10;99.90;;;;;;5109573;28;20197;-83
2022/11/16 12:29:17;;;;;;;6.10;4.37;;;9.00;99.90;;;;;;5102860;28;20654;-84
2022/11/16 12:32:21;;;;;;;7.20;4.50;;;9.00;57.90;;;;;;5097202;28;20255;-84
2022/11/16 12:35:08;;;;;;;7.40;4.13;;;9.00;71.40;;;;;;5095373;28;20237;-83
2022/11/16 12:37:41;;;;;;;5.70;3.87;;;8.90;31.80;;;;;;5095583;28;20240;-83
2022/11/16 12:40:25;;;;;;;4.80;3.57;;;8.80;1.00;;;;;;5095669;28;20204;-84
2022/11/16 12:42:59;;;;;;;6.03;4.13;;;8.70;1.00;;;;;;5095476;28;20249;-84
2022/11/16 12:45:47;;;;;;;6.30;3.87;;;8.70;31.10;;;;;;5095665;28;20257;-85
2022/11/16 12:48:32;;;;;;;5.47;3.90;;;8.70;66.30;;;;;;5095741;28;20243;-84
2022/11/16 12:51:10;;;;;;;6.27;3.70;;;8.70;22.30;;;;;;5095218;28;20197;-84
2022/11/16 12:54:00;;;;;;;5.07;4.13;;;8.60;9.60;;;;;;5098526;28;20197;-84
2022/11/16 12:56:38;;;;;;;6.00;3.97;;;8.60;20.80;;;;;;5095166;28;20231;-84
2022/11/16 12:59:30;;;;;;;5.53;3.97;;;8.60;30.70;;;;;;5095422;28;20265;-86
2022/11/16 13:02:10;;;;;;;4.80;3.43;;;8.60;22.70;;;;;;5095362;28;20245;-86
2022/11/16 13:04:41;;;;;;;4.47;3.40;;;8.60;47.70;;;;;;5095083;28;20913;-85
2022/11/16 13:07:14;;;;;;;6.03;3.50;;;8.50;21.60;;;;;;5094948;28;20596;-85
2022/11/16 13:09:45;;;;;;;6.57;3.47;;;8.50;17.90;;;;;;5096676;28;20214;-86
2022/11/16 13:12:16;;;;;;;4.77;3.30;;;8.50;1.00;;;;;;5094737;28;20196;-85
2022/11/16 13:14:46;;;;;;;4.13;2.87;;;8.40;47.40;;;;;;5095215;28;20243;-85
2022/11/16 13:17:19;;;;;;;4.40;2.63;;;8.40;6.90;;;;;;5094735;28;20184;-85
2022/11/16 13:19:57;;;;;;;4.37;2.80;;;8.30;1.00;;;;;;5096386;28;20266;-86
2022/11/16 13:22:28;;;;;;;4.33;2.80;;;8.30;38.60;;;;;;5087899;28;20279;-84
2022/11/16 13:25:00;;;;;;;5.03;2.80;;;8.30;24.50;;;;;;5088150;28;20202;-84
2022/11/16 13:27:36;;;;;;;3.63;2.60;;;8.30;1.00;;;;;;5094902;28;20192;-84
2022/11/16 13:30:13;;;;;;;3.83;2.50;;;8.30;53.30;;;;;;5097866;28;20760;-87
2022/11/16 13:33:03;;;;;;;5.63;2.63;;;8.30;99.90;;;;;;5094781;28;20245;-85
2022/11/16 13:35:31;;;;;;;3.30;2.40;;;8.30;36.90;;;;;;5094429;28;20530;-87
2022/11/16 13:37:59;;;;;;;4.07;2.60;;;8.30;1.00;;;;;;5094715;28;20250;-86
2022/11/16 13:40:28;;;;;;;3.77;2.77;;;8.20;1.00;;;;;;5094478;28;20216;-86
2022/11/16 13:43:17;;;;;;;3.80;2.70;;;8.10;7.00;;;;;;5093363;28;20654;-84
2022/11/16 13:45:54;;;;;;;4.03;2.53;;;8.10;1.00;;;;;;5094393;28;20196;-87
2022/11/16 13:48:23;;;;;;;2.37;2.17;;;8.10;1.00;;;;;;5097034;28;20194;-84
2022/11/16 13:50:54;;;;;;;3.87;2.60;;;8.10;2.30;;;;;;5094472;28;20657;-85
2022/11/16 13:53:29;;;;;;;2.83;2.47;;;8.00;31.30;;;;;;5094532;28;20266;-85
2022/11/16 13:55:58;;;;;;;3.50;2.70;;;8.00;48.70;;;;;;5096765;28;20217;-84
2022/11/16 13:58:28;;;;;;;3.50;2.30;;;7.90;35.50;;;;;;5099501;28;20201;-86
2022/11/16 14:01:04;;;;;;;2.60;2.23;;;7.90;12.40;;;;;;5097294;28;20221;-85
2022/11/16 14:03:37;;;;;;;2.63;2.27;;;7.80;35.30;;;;;;5094043;28;20607;-85
2022/11/16 14:06:06;;;;;;;3.47;2.20;;;7.80;76.40;;;;;;5094331;28;20191;-85
2022/11/16 14:08:50;;;;;;;3.90;2.10;;;7.80;99.90;;;;;;5094042;28;20243;-86
2022/11/16 14:11:41;;;;;;;3.43;2.37;;;7.70;61.30;;;;;;5092718;28;20645;-85
2022/11/16 14:14:11;;;;;;;2.67;2.00;;;7.70;99.90;;;;;;5083509;28;20196;-85
2022/11/16 14:16:55;;;;;;;2.90;2.03;;;7.70;99.90;;;;;;5093925;28;20214;-85
2022/11/16 14:19:53;;;;;;;2.70;2.33;;;7.60;99.90;;;;;;5093505;28;20695;-85
2022/11/16 14:22:51;;;;;;;4.50;2.37;;;7.60;99.90;;;;;;5093588;28;20564;-85
2022/11/16 14:25:30;;;;;;;4.47;2.40;;;7.50;99.90;;;;;;5081104;28;20289;-85
2022/11/16 14:28:09;;;;;;;3.37;2.50;;;7.50;99.90;;;;;;5093596;28;20190;-85
2022/11/16 14:30:50;;;;;;;5.03;2.33;;;7.40;99.90;;;;;;5092675;28;20719;-86
2022/11/16 14:33:30;;;;;;;3.13;2.70;;;7.40;99.90;;;;;;5089323;28;20184;-85
2022/11/16 14:35:57;;;;;;;4.13;2.60;;;7.40;99.90;;;;;;5087144;28;20196;-86
2022/11/16 14:38:32;;;;;;;3.67;2.70;;;7.40;99.90;;;;;;5092969;28;20189;-85